N2QDK-2 Weather Reports


Display with metric or nautical units.
time (UTC)temp
F
wind
direction
speed
MPH
gust
MPH
rain 1hr
in
rain 24hr
in
rain mn
in
humidity
%
barometer
mb
20180523045911 57 284 0.0 0.0 0.00 0.46 0.00 95 1013.7
20180523042910 57 284 0.0 0.0 0.00 0.46 0.00 95 1013.7
20180523035839 57 284 0.0 3.0 0.00 0.46 0.00 95 1013.6
20180523032908 57 284 0.0 0.0 0.00 0.46 0.46 95 1013.6
20180523025907 57 284 0.0 0.0 0.00 0.46 0.46 95 1013.5
20180523022907 57 284 0.0 0.0 0.00 0.46 0.46 95 1013.4
20180523015906 57 284 0.0 0.0 0.00 0.46 0.46 95 1013.2
20180523012905 56 284 0.0 2.0 0.00 0.46 0.46 95 1012.6
20180523005904 56 294 0.0 3.0 0.00 0.46 0.46 95 1012.6
20180523002903 56 280 0.0 6.0 0.00 0.46 0.46 95 1012.3
20180522235902 56 24 0.0 5.0 0.00 0.46 0.46 94 1012.1
20180522232901 56 275 0.0 0.0 0.00 0.46 0.46 93 1012.6
20180522225930 56 31 0.0 8.0 0.00 0.46 0.46 92 1012.6
20180522222902 58 45 2.0 6.0 0.00 0.46 0.46 90 1012.4
20180522215929 58 251 3.0 9.0 0.00 0.46 0.46 92 1012.2
20180522212858 59 302 2.0 8.0 0.00 0.46 0.46 91 1012.2
20180522205927 61 74 0.0 8.0 0.00 0.46 0.46 91 1012.3
20180522202926 61 351 2.0 3.0 0.00 0.46 0.46 93 1012.2
20180522195925 60 344 0.0 11.0 0.00 0.46 0.46 93 1012.2
20180522192924 60 242 8.0 14.0 0.00 0.46 0.46 91 1012.9
20180522185923 66 342 5.0 11.0 0.00 0.46 0.46 84 1012.8
20180522182852 72 172 3.0 9.0 0.00 0.46 0.46 82 1012.3
20180522175852 71 217 2.0 11.0 0.01 0.46 0.46 85 1012.8
20180522172921 69 249 2.0 18.0 0.16 0.46 0.46 89 1013.2
20180522165920 67 215 2.0 9.0 0.15 0.45 0.45 95 1013.6
20180522162919 63 173 0.0 5.0 0.00 0.30 0.30 97 1013.8
20180522155918 61 223 2.0 6.0 0.00 0.30 0.30 97 1014.0
20180522152917 60 127 3.0 6.0 0.00 0.30 0.30 97 1014.3
20180522145916 59 134 2.0 6.0 0.02 0.30 0.30 96 1014.4
20180522142915 58 132 0.0 3.0 0.05 0.30 0.30 96 1014.7
20180522135844 57 91 0.0 3.0 0.03 0.28 0.28 96 1015.0
20180522132914 56 151 0.0 6.0 0.01 0.25 0.25 95 1015.5
20180522125913 56 128 0.0 5.0 0.03 0.25 0.25 95 1015.8
20180522122912 55 299 0.0 6.0 0.07 0.24 0.24 94 1016.1
20180522115911 56 119 2.0 5.0 0.09 0.22 0.22 94 1016.9
20180522112855 56 280 0.0 0.0 0.06 0.17 0.17 94 1017.4
20180522105909 56 280 0.0 0.0 0.11 0.13 0.13 93 1016.6
20180522102908 56 280 0.0 0.0 0.11 0.11 0.11 90 1016.7
20180522095907 59 280 0.0 0.0 0.02 0.02 0.02 80 1017.5
20180522092906 61 118 0.0 0.0 0.00 0.00 0.00 69 1016.4
20180522085905 62 115 0.0 0.0 0.00 0.00 0.00 65 1017.0
20180522082905 62 131 0.0 2.0 0.00 0.00 0.00 62 1017.2
20180522075904 61 118 0.0 0.0 0.00 0.00 0.00 66 1017.4
20180522072903 61 100 0.0 5.0 0.00 0.00 0.00 67 1017.7
20180522065902 62 115 0.0 3.0 0.00 0.00 0.00 65 1018.5
20180522062831 62 61 0.0 2.0 0.00 0.00 0.00 64 1018.6
20180522055900 61 28 0.0 0.0 0.00 0.00 0.00 66 1019.1
20180522052859 61 28 0.0 0.0 0.00 0.00 0.00 67 1019.6